createdAt,value
2022-10-09T00:03:24.878Z,4.28
2022-10-09T00:08:26.690Z,4.25
2022-10-09T00:13:28.334Z,3.88
2022-10-09T00:18:30.302Z,3.72
2022-10-09T00:23:32.525Z,3.35
2022-10-09T00:28:37.828Z,3.80
2022-10-09T00:33:40.613Z,3.70
2022-10-09T00:38:42.537Z,3.20
2022-10-09T00:43:56.110Z,3.63
2022-10-09T00:49:12.470Z,3.58
2022-10-09T00:54:18.269Z,3.85
2022-10-09T00:59:20.791Z,3.88
2022-10-09T01:04:22.579Z,3.53
2022-10-09T01:09:38.110Z,3.80
2022-10-09T01:14:54.355Z,4.30
2022-10-09T01:20:17.868Z,3.80
2022-10-09T01:25:35.462Z,3.50
2022-10-09T01:30:37.600Z,3.70
2022-10-09T01:35:41.571Z,4.33
2022-10-09T01:40:43.715Z,4.22
2022-10-09T01:45:47.134Z,4.20
2022-10-09T01:50:55.363Z,4.20
2022-10-09T01:56:09.245Z,3.45
2022-10-09T02:01:15.728Z,3.70
2022-10-09T02:06:19.224Z,3.80
2022-10-09T02:11:23.807Z,3.85
2022-10-09T02:16:37.395Z,4.15
2022-10-09T02:21:50.322Z,4.10
2022-10-09T02:26:56.153Z,3.92
2022-10-09T02:31:57.996Z,3.42
2022-10-09T02:36:59.687Z,3.60
2022-10-09T02:42:01.652Z,3.60
2022-10-09T02:47:03.353Z,3.23
2022-10-09T02:52:05.439Z,2.78
2022-10-09T02:57:07.078Z,3.93
2022-10-09T03:02:08.924Z,3.13
2022-10-09T03:07:10.922Z,2.60
2022-10-09T03:12:13.920Z,2.85
2022-10-09T03:17:15.611Z,3.33
2022-10-09T03:22:17.297Z,3.03
2022-10-09T03:27:19.189Z,3.28
2022-10-09T03:32:20.950Z,3.20
2022-10-09T03:37:22.852Z,2.57
2022-10-09T03:42:25.047Z,3.15
2022-10-09T03:47:26.777Z,2.90
2022-10-09T03:52:28.442Z,2.60
2022-10-09T03:57:30.161Z,2.25
2022-10-09T04:02:33.428Z,2.30
2022-10-09T04:07:35.266Z,1.83
2022-10-09T04:12:37.029Z,2.00
2022-10-09T04:17:38.723Z,2.58
2022-10-09T04:22:40.544Z,1.80
2022-10-09T04:27:42.182Z,2.70
2022-10-09T04:32:43.857Z,2.20
2022-10-09T04:37:45.546Z,3.53
2022-10-09T04:42:47.589Z,2.67
2022-10-09T04:47:49.489Z,2.17
2022-10-09T04:52:51.562Z,2.10
2022-10-09T04:57:53.317Z,3.17
2022-10-09T05:02:55.407Z,3.33
2022-10-09T05:07:57.086Z,2.27
2022-10-09T05:12:59.375Z,2.10
2022-10-09T05:18:01.136Z,2.03
2022-10-09T05:23:03.019Z,2.17
2022-10-09T05:28:06.304Z,2.80
2022-10-09T05:33:08.079Z,2.20
2022-10-09T05:38:09.785Z,2.10
2022-10-09T05:43:11.494Z,2.63
2022-10-09T05:48:13.185Z,3.40
2022-10-09T05:53:14.830Z,2.97
2022-10-09T05:58:16.453Z,2.72
2022-10-09T06:03:18.154Z,3.45
2022-10-09T06:08:20.096Z,5.17
2022-10-09T06:13:21.958Z,4.22
2022-10-09T06:18:23.627Z,4.53
2022-10-09T06:23:25.775Z,3.70
2022-10-09T06:28:32.356Z,3.67
2022-10-09T06:33:35.890Z,4.30
2022-10-09T06:38:38.915Z,3.97
2022-10-09T06:48:42.968Z,5.45
2022-10-09T06:53:48.999Z,7.63
2022-10-09T06:58:51.427Z,10.20
2022-10-09T07:03:56.169Z,9.07
2022-10-09T07:09:04.410Z,8.65
2022-10-09T07:14:08.383Z,7.47
2022-10-09T07:19:11.712Z,7.60
2022-10-09T07:24:14.457Z,8.23
2022-10-09T07:29:18.219Z,7.65
2022-10-09T07:34:19.903Z,7.78
2022-10-09T07:39:21.743Z,8.25
2022-10-09T07:44:23.405Z,7.10
2022-10-09T07:49:25.133Z,6.93
2022-10-09T07:54:27.063Z,6.57
2022-10-09T07:59:28.904Z,6.63
2022-10-09T08:04:30.894Z,6.70
2022-10-09T08:09:32.675Z,6.70
2022-10-09T08:14:34.442Z,6.13
2022-10-09T08:19:36.037Z,5.97
2022-10-09T08:24:38.397Z,5.80
2022-10-09T08:29:40.509Z,5.75
2022-10-09T08:34:42.289Z,5.03
2022-10-09T08:39:43.992Z,5.00
2022-10-09T08:44:49.078Z,5.13
2022-10-09T08:50:00.157Z,5.00
2022-10-09T08:55:28.764Z,4.65
2022-10-09T09:00:43.993Z,4.75
2022-10-09T09:05:55.073Z,4.78
2022-10-09T09:11:28.076Z,4.63
2022-10-09T09:16:48.149Z,4.38
2022-10-09T09:21:51.917Z,4.50
2022-10-09T09:26:59.423Z,4.57
2022-10-09T09:32:01.265Z,4.63
2022-10-09T09:37:03.169Z,5.20
2022-10-09T09:42:13.320Z,4.77
2022-10-09T09:47:27.743Z,4.72
2022-10-09T09:52:35.953Z,4.32
2022-10-09T09:57:44.397Z,4.25
2022-10-09T10:02:46.778Z,4.00
2022-10-09T10:07:51.357Z,4.35
2022-10-09T10:12:53.503Z,3.75
2022-10-09T10:18:04.580Z,4.13
2022-10-09T10:23:20.445Z,4.07
2022-10-09T10:28:31.343Z,4.45
2022-10-09T10:33:36.405Z,3.63
2022-10-09T10:38:58.781Z,4.18
2022-10-09T10:44:22.904Z,4.17
2022-10-09T10:49:24.691Z,3.80
2022-10-09T10:54:29.486Z,4.10
2022-10-09T10:59:42.615Z,3.55
2022-10-09T11:10:24.162Z,3.30
2022-10-09T11:15:44.677Z,2.95
2022-10-09T11:21:02.758Z,2.88
2022-10-09T11:26:04.329Z,2.72
2022-10-09T11:31:41.543Z,3.00
2022-10-09T11:36:45.387Z,2.65
2022-10-09T11:41:48.898Z,2.63
2022-10-09T11:47:09.935Z,2.47
2022-10-09T11:52:26.345Z,2.47
2022-10-09T11:57:29.368Z,2.65
2022-10-09T12:02:31.817Z,2.35
2022-10-09T12:07:33.627Z,2.47
2022-10-09T12:12:38.734Z,2.15
2022-10-09T12:17:49.724Z,2.28
2022-10-09T12:23:25.054Z,2.35
2022-10-09T12:28:28.069Z,2.58
2022-10-09T12:33:45.197Z,2.58
2022-10-09T12:38:46.991Z,2.72
2022-10-09T12:43:54.527Z,2.45
2022-10-09T12:48:57.959Z,2.60
2022-10-09T12:54:00.063Z,2.97
2022-10-09T12:59:02.574Z,2.80
2022-10-09T13:04:06.350Z,2.45
2022-10-09T13:09:21.494Z,2.40
2022-10-09T13:14:44.608Z,2.65
2022-10-09T13:19:55.504Z,2.53
2022-10-09T13:24:59.163Z,3.15
2022-10-09T13:30:01.546Z,2.88
2022-10-09T13:35:03.547Z,2.80
2022-10-09T13:40:05.966Z,2.40
2022-10-09T13:45:08.441Z,2.50
2022-10-09T13:50:13.720Z,2.70
2022-10-09T13:55:15.480Z,2.80
2022-10-09T14:00:17.384Z,2.70
2022-10-09T14:05:19.365Z,2.63
2022-10-09T14:10:23.884Z,2.60
2022-10-09T14:15:25.911Z,3.00
2022-10-09T14:20:28.510Z,2.83
2022-10-09T14:25:30.432Z,3.20
2022-10-09T14:30:32.166Z,2.78
2022-10-09T14:35:34.532Z,3.03
2022-10-09T14:40:41.745Z,2.65
2022-10-09T14:45:43.441Z,2.78
2022-10-09T14:50:45.077Z,3.05
2022-10-09T14:55:46.894Z,2.65
2022-10-09T15:00:48.674Z,2.57
2022-10-09T15:05:50.425Z,2.92
2022-10-09T15:10:53.234Z,2.92
2022-10-09T15:21:00.908Z,2.80
2022-10-09T15:26:02.806Z,2.53
2022-10-09T15:31:06.552Z,2.22
2022-10-09T15:36:08.518Z,2.58
2022-10-09T15:41:27.359Z,2.25
2022-10-09T15:46:30.093Z,3.50
2022-10-09T15:51:33.210Z,9.52
2022-10-09T15:56:38.900Z,3.80
2022-10-09T16:01:41.839Z,2.45
2022-10-09T16:06:43.543Z,2.28
2022-10-09T16:11:45.462Z,2.42
2022-10-09T16:16:48.528Z,2.50
2022-10-09T16:21:51.538Z,3.00
2022-10-09T16:26:54.367Z,2.42
2022-10-09T16:31:56.621Z,2.95
2022-10-09T16:37:01.857Z,3.08
2022-10-09T16:42:04.071Z,2.85
2022-10-09T16:47:05.889Z,3.20
2022-10-09T16:52:07.566Z,3.00
2022-10-09T16:57:09.290Z,3.58
2022-10-09T17:02:12.271Z,5.15
2022-10-09T17:07:14.141Z,3.55
2022-10-09T17:12:15.967Z,3.25
2022-10-09T17:17:17.768Z,2.50
2022-10-09T17:22:19.445Z,3.88
2022-10-09T17:27:21.172Z,4.25
2022-10-09T17:32:23.001Z,3.78
2022-10-09T17:37:25.008Z,3.47
2022-10-09T17:42:26.629Z,3.05
2022-10-09T17:47:28.372Z,3.05
2022-10-09T17:52:30.058Z,2.78
2022-10-09T17:57:31.871Z,3.22
2022-10-09T18:02:33.597Z,3.78
2022-10-09T18:07:35.520Z,3.17
2022-10-09T18:12:37.175Z,3.05
2022-10-09T18:17:39.017Z,3.97
2022-10-09T18:22:40.675Z,3.00
2022-10-09T18:27:42.399Z,3.00
2022-10-09T18:32:44.163Z,2.95
2022-10-09T18:37:45.940Z,3.50
2022-10-09T18:42:47.957Z,3.67
2022-10-09T18:47:51.315Z,3.30
2022-10-09T18:52:54.085Z,3.13
2022-10-09T18:57:56.063Z,2.70
2022-10-09T19:02:57.738Z,3.35
2022-10-09T19:07:59.477Z,10.32
2022-10-09T19:13:01.262Z,6.00
2022-10-09T19:18:02.900Z,4.30
2022-10-09T19:23:04.659Z,5.82
2022-10-09T19:28:06.422Z,5.97
2022-10-09T19:33:08.554Z,3.30
2022-10-09T19:38:10.247Z,3.10
2022-10-09T19:43:12.924Z,3.38
2022-10-09T19:48:16.139Z,3.22
2022-10-09T19:53:17.805Z,2.97
2022-10-09T19:58:19.502Z,3.13
2022-10-09T20:03:21.246Z,3.38
2022-10-09T20:08:22.902Z,3.63
2022-10-09T20:13:24.574Z,3.67
2022-10-09T20:18:26.885Z,3.42
2022-10-09T20:23:28.566Z,3.60
2022-10-09T20:28:35.236Z,4.03
2022-10-09T20:33:38.437Z,3.70
2022-10-09T20:38:40.111Z,4.10
2022-10-09T20:43:41.857Z,4.35
2022-10-09T20:48:44.485Z,4.60
2022-10-09T20:53:50.589Z,3.78
2022-10-09T20:58:52.632Z,4.18
2022-10-09T21:03:59.055Z,4.50
2022-10-09T21:09:00.815Z,4.30
2022-10-09T21:14:03.170Z,4.00
2022-10-09T21:19:06.175Z,3.97
2022-10-09T21:24:08.064Z,3.33
2022-10-09T21:29:11.194Z,4.45
2022-10-09T21:34:12.871Z,3.50
2022-10-09T21:39:14.633Z,3.20
2022-10-09T21:44:16.384Z,3.78
2022-10-09T21:49:27.168Z,3.28
2022-10-09T21:54:28.991Z,3.40
2022-10-09T21:59:30.631Z,3.53
2022-10-09T22:04:32.457Z,3.25
2022-10-09T22:09:34.230Z,3.35
2022-10-09T22:14:35.896Z,3.53
2022-10-09T22:19:37.573Z,3.90
2022-10-09T22:24:39.333Z,3.83
2022-10-09T22:29:41.034Z,2.88
2022-10-09T22:34:42.685Z,2.97
2022-10-09T22:39:44.343Z,3.40
2022-10-09T22:44:46.098Z,3.10
2022-10-09T22:49:50.374Z,3.17
2022-10-09T22:54:52.608Z,3.10
2022-10-09T22:59:54.264Z,3.30
2022-10-09T23:04:55.952Z,3.55
2022-10-09T23:09:57.726Z,3.38
2022-10-09T23:14:59.522Z,3.40
2022-10-09T23:20:01.205Z,3.15
2022-10-09T23:25:03.551Z,3.00
2022-10-09T23:30:05.947Z,3.20
2022-10-09T23:35:08.229Z,3.33
2022-10-09T23:40:09.955Z,3.30
2022-10-09T23:45:11.642Z,3.20
2022-10-09T23:50:13.275Z,2.95
2022-10-09T23:55:15.041Z,3.00
